Acton, Maine
Current Conditions -  °F | °C
As of 10:35 AM on Wednesday 26 Nov 2014 (Local Time) from KSFM Reporting Station
Broken Clouds Broken Clouds  
Wind Chill: 33°   Ceiling: 4100
Heat Index: 39°   Visibility: 10mi
Dew Point: 25°   Wind: 9mph
Humidity: 56%   Direction: 30°NNE
Pressure: 30.15"   Gusts: NA
Location:  43.53°N, 70.91°W
Report Text: KSFM 261535Z AUTO 03008KT 10SM BKN041 BKN046 04/M04 A3015 RMK AO1
Loading
Personal Weather Stations






























Interactive Weather Map New forecast layout! Learn more

10-Day Weather Forecast

Advertisements
Track Severe Weather on mobile